sensor_id;sensor_type;location;lat;lon;timestamp;pressure;altitude;pressure_sealevel;temperature;humidity
38806;BME280;25635;51.146;17.162;2022-11-25T00:01:09;100108.44;;;3.11;91.37
38806;BME280;25635;51.146;17.162;2022-11-25T00:03:38;100106.75;;;3.13;91.43
38806;BME280;25635;51.146;17.162;2022-11-25T00:06:11;100101.63;;;3.14;91.45
38806;BME280;25635;51.146;17.162;2022-11-25T00:08:47;100105.11;;;3.16;91.57
38806;BME280;25635;51.146;17.162;2022-11-25T00:11:15;100099.95;;;3.16;91.80
38806;BME280;25635;51.146;17.162;2022-11-25T00:13:43;100102.14;;;3.18;91.97
38806;BME280;25635;51.146;17.162;2022-11-25T00:16:13;100106.84;;;3.17;92.08
38806;BME280;25635;51.146;17.162;2022-11-25T00:18:45;100097.36;;;3.18;92.19
38806;BME280;25635;51.146;17.162;2022-11-25T00:21:15;100102.23;;;3.23;92.31
38806;BME280;25635;51.146;17.162;2022-11-25T00:23:43;100103.60;;;3.28;92.30
38806;BME280;25635;51.146;17.162;2022-11-25T00:26:12;100100.28;;;3.33;92.33
38806;BME280;25635;51.146;17.162;2022-11-25T00:28:41;100098.64;;;3.37;92.14
38806;BME280;25635;51.146;17.162;2022-11-25T00:31:15;100099.15;;;3.41;92.07
38806;BME280;25635;51.146;17.162;2022-11-25T00:33:46;100102.25;;;3.47;92.19
38806;BME280;25635;51.146;17.162;2022-11-25T00:36:27;100103.62;;;3.50;92.07
38806;BME280;25635;51.146;17.162;2022-11-25T00:38:58;100106.13;;;3.47;91.93
38806;BME280;25635;51.146;17.162;2022-11-25T00:41:27;100115.61;;;3.46;92.08
38806;BME280;25635;51.146;17.162;2022-11-25T00:44:14;100116.43;;;3.45;92.21
38806;BME280;25635;51.146;17.162;2022-11-25T00:49:36;100112.23;;;3.50;92.40
38806;BME280;25635;51.146;17.162;2022-11-25T00:52:04;100112.75;;;3.54;92.41
38806;BME280;25635;51.146;17.162;2022-11-25T00:54:31;100114.52;;;3.57;92.27
38806;BME280;25635;51.146;17.162;2022-11-25T00:56:58;100111.92;;;3.57;92.30
38806;BME280;25635;51.146;17.162;2022-11-25T00:59:24;100112.31;;;3.55;92.37
38806;BME280;25635;51.146;17.162;2022-11-25T01:01:51;100115.37;;;3.57;92.58
38806;BME280;25635;51.146;17.162;2022-11-25T01:04:17;100119.30;;;3.59;92.66
38806;BME280;25635;51.146;17.162;2022-11-25T01:06:43;100123.60;;;3.58;92.68
38806;BME280;25635;51.146;17.162;2022-11-25T01:09:11;100123.14;;;3.57;92.78
38806;BME280;25635;51.146;17.162;2022-11-25T01:11:38;100117.56;;;3.58;92.91
38806;BME280;25635;51.146;17.162;2022-11-25T01:14:04;100124.94;;;3.60;92.88
38806;BME280;25635;51.146;17.162;2022-11-25T01:16:30;100127.12;;;3.62;92.92
38806;BME280;25635;51.146;17.162;2022-11-25T01:18:58;100126.27;;;3.63;92.83
38806;BME280;25635;51.146;17.162;2022-11-25T01:21:27;100123.25;;;3.63;92.76
38806;BME280;25635;51.146;17.162;2022-11-25T01:23:58;100125.84;;;3.63;92.85
38806;BME280;25635;51.146;17.162;2022-11-25T01:26:26;100123.76;;;3.66;92.94
38806;BME280;25635;51.146;17.162;2022-11-25T01:28:57;100121.17;;;3.68;92.99
38806;BME280;25635;51.146;17.162;2022-11-25T01:31:26;100125.09;;;3.69;93.14
38806;BME280;25635;51.146;17.162;2022-11-25T01:33:57;100122.91;;;3.67;93.22
38806;BME280;25635;51.146;17.162;2022-11-25T01:36:26;100118.52;;;3.63;93.23
38806;BME280;25635;51.146;17.162;2022-11-25T01:38:55;100121.96;;;3.63;93.32
38806;BME280;25635;51.146;17.162;2022-11-25T01:41:30;100125.05;;;3.66;93.41
38806;BME280;25635;51.146;17.162;2022-11-25T01:44:15;100123.33;;;3.68;93.40
38806;BME280;25635;51.146;17.162;2022-11-25T01:49:37;100125.68;;;3.78;93.41
38806;BME280;25635;51.146;17.162;2022-11-25T01:52:24;100119.25;;;3.79;93.30
38806;BME280;25635;51.146;17.162;2022-11-25T01:55:02;100122.77;;;3.83;93.26
38806;BME280;25635;51.146;17.162;2022-11-25T01:57:40;100122.77;;;3.83;93.26
38806;BME280;25635;51.146;17.162;2022-11-25T02:00:09;100124.97;;;3.86;93.14
38806;BME280;25635;51.146;17.162;2022-11-25T02:02:37;100125.36;;;3.84;93.15
38806;BME280;25635;51.146;17.162;2022-11-25T02:05:06;100120.19;;;3.84;93.23
38806;BME280;25635;51.146;17.162;2022-11-25T02:07:37;100121.02;;;3.82;93.09
38806;BME280;25635;51.146;17.162;2022-11-25T02:10:11;100126.97;;;3.78;93.18
38806;BME280;25635;51.146;17.162;2022-11-25T02:12:40;100121.84;;;3.79;93.31
38806;BME280;25635;51.146;17.162;2022-11-25T02:15:09;100125.33;;;3.81;93.35
38806;BME280;25635;51.146;17.162;2022-11-25T02:17:38;100123.67;;;3.86;93.33
38806;BME280;25635;51.146;17.162;2022-11-25T02:20:09;100118.14;;;3.90;93.37
38806;BME280;25635;51.146;17.162;2022-11-25T02:22:51;100111.75;;;3.93;93.23
38806;BME280;25635;51.146;17.162;2022-11-25T02:25:23;100115.70;;;3.99;93.12
38806;BME280;25635;51.146;17.162;2022-11-25T02:27:57;100108.44;;;4.02;92.99
38806;BME280;25635;51.146;17.162;2022-11-25T02:30:33;100111.92;;;4.04;92.87
38806;BME280;25635;51.146;17.162;2022-11-25T02:33:00;100114.91;;;4.02;92.67
38806;BME280;25635;51.146;17.162;2022-11-25T02:35:38;100117.89;;;4.00;92.56
38806;BME280;25635;51.146;17.162;2022-11-25T02:38:08;100119.08;;;3.95;92.46
38806;BME280;25635;51.146;17.162;2022-11-25T02:40:46;100112.57;;;3.92;92.36
38806;BME280;25635;51.146;17.162;2022-11-25T02:43:15;100123.75;;;3.90;92.33
38806;BME280;25635;51.146;17.162;2022-11-25T02:45:55;100123.75;;;3.90;92.31
38806;BME280;25635;51.146;17.162;2022-11-25T02:48:23;100123.31;;;3.90;92.37
38806;BME280;25635;51.146;17.162;2022-11-25T02:50:51;100128.96;;;3.91;92.28
38806;BME280;25635;51.146;17.162;2022-11-25T02:53:17;100128.53;;;3.92;92.19
38806;BME280;25635;51.146;17.162;2022-11-25T02:55:44;100131.55;;;3.93;92.31
38806;BME280;25635;51.146;17.162;2022-11-25T02:58:11;100135.42;;;3.91;92.28
38806;BME280;25635;51.146;17.162;2022-11-25T03:00:40;100135.42;;;3.91;92.26
38806;BME280;25635;51.146;17.162;2022-11-25T03:03:07;100137.98;;;3.90;92.33
38806;BME280;25635;51.146;17.162;2022-11-25T03:05:33;100139.70;;;3.89;92.44
38806;BME280;25635;51.146;17.162;2022-11-25T03:08:00;100143.58;;;3.89;92.52
38806;BME280;25635;51.146;17.162;2022-11-25T03:10:27;100146.17;;;3.91;92.45
38806;BME280;25635;51.146;17.162;2022-11-25T03:12:53;100147.94;;;3.92;92.42
38806;BME280;25635;51.146;17.162;2022-11-25T03:15:20;100144.48;;;3.93;92.36
38806;BME280;25635;51.146;17.162;2022-11-25T03:17:46;100148.41;;;3.94;92.33
38806;BME280;25635;51.146;17.162;2022-11-25T03:20:12;100151.42;;;3.95;92.40
38806;BME280;25635;51.146;17.162;2022-11-25T03:22:41;100154.91;;;3.97;92.39
38806;BME280;25635;51.146;17.162;2022-11-25T03:25:09;100155.37;;;3.98;92.42
38806;BME280;25635;51.146;17.162;2022-11-25T03:27:37;100150.24;;;4.00;92.31
38806;BME280;25635;51.146;17.162;2022-11-25T03:30:07;100153.66;;;3.99;92.32
38806;BME280;25635;51.146;17.162;2022-11-25T03:32:35;100145.85;;;3.96;92.27
38806;BME280;25635;51.146;17.162;2022-11-25T03:35:02;100146.68;;;3.95;92.26
38806;BME280;25635;51.146;17.162;2022-11-25T03:37:28;100152.72;;;3.95;92.32
38806;BME280;25635;51.146;17.162;2022-11-25T03:39:54;100154.91;;;3.97;92.29
38806;BME280;25635;51.146;17.162;2022-11-25T03:42:20;100152.40;;;4.00;92.42
38806;BME280;25635;51.146;17.162;2022-11-25T03:44:46;100150.71;;;4.02;92.37
38806;BME280;25635;51.146;17.162;2022-11-25T03:47:13;100147.30;;;4.05;92.27
38806;BME280;25635;51.146;17.162;2022-11-25T03:49:39;100149.45;;;4.04;92.22
38806;BME280;25635;51.146;17.162;2022-11-25T03:52:05;100151.14;;;4.03;92.27
38806;BME280;25635;51.146;17.162;2022-11-25T03:54:31;100152.00;;;4.02;92.19
38806;BME280;25635;51.146;17.162;2022-11-25T03:56:57;100147.66;;;4.00;92.27
38806;BME280;25635;51.146;17.162;2022-11-25T03:59:24;100151.94;;;3.99;92.30
38806;BME280;25635;51.146;17.162;2022-11-25T04:01:50;100155.37;;;3.98;92.29
38806;BME280;25635;51.146;17.162;2022-11-25T04:04:16;100152.36;;;3.99;92.44
38806;BME280;25635;51.146;17.162;2022-11-25T04:06:43;100151.94;;;3.99;92.36
38806;BME280;25635;51.146;17.162;2022-11-25T04:09:09;100150.24;;;4.00;92.38
38806;BME280;25635;51.146;17.162;2022-11-25T04:11:37;100155.42;;;4.01;92.33
38806;BME280;25635;51.146;17.162;2022-11-25T04:14:23;100152.83;;;4.00;92.27
38806;BME280;25635;51.146;17.162;2022-11-25T04:16:49;100158.01;;;4.01;92.44
38806;BME280;25635;51.146;17.162;2022-11-25T04:19:15;100152.40;;;4.00;92.32
38806;BME280;25635;51.146;17.162;2022-11-25T04:21:42;100152.40;;;4.00;92.45
38806;BME280;25635;51.146;17.162;2022-11-25T04:24:08;100157.50;;;3.97;92.56
38806;BME280;25635;51.146;17.162;2022-11-25T04:26:34;100158.36;;;3.96;92.68
38806;BME280;25635;51.146;17.162;2022-11-25T04:29:00;100162.67;;;3.97;92.69
38806;BME280;25635;51.146;17.162;2022-11-25T04:31:27;100160.98;;;3.98;92.69
38806;BME280;25635;51.146;17.162;2022-11-25T04:33:53;100164.88;;;3.98;92.65
38806;BME280;25635;51.146;17.162;2022-11-25T04:36:20;100165.73;;;3.98;92.58
38806;BME280;25635;51.146;17.162;2022-11-25T04:38:47;100164.48;;;4.01;92.62
38806;BME280;25635;51.146;17.162;2022-11-25T04:41:13;100167.14;;;4.04;92.79
38806;BME280;25635;51.146;17.162;2022-11-25T04:43:39;100167.22;;;4.09;92.85
38806;BME280;25635;51.146;17.162;2022-11-25T04:46:06;100168.11;;;4.11;92.74
38806;BME280;25635;51.146;17.162;2022-11-25T04:48:32;100176.34;;;4.12;92.73
38806;BME280;25635;51.146;17.162;2022-11-25T04:50:58;100177.14;;;4.10;92.68
38806;BME280;25635;51.146;17.162;2022-11-25T04:53:24;100171.09;;;4.09;92.60
38806;BME280;25635;51.146;17.162;2022-11-25T04:55:50;100172.82;;;4.09;92.65
38806;BME280;25635;51.146;17.162;2022-11-25T04:58:16;100171.09;;;4.09;92.57
38806;BME280;25635;51.146;17.162;2022-11-25T05:00:44;100175.84;;;4.08;92.43
38806;BME280;25635;51.146;17.162;2022-11-25T05:03:10;100174.55;;;4.08;92.37
38806;BME280;25635;51.146;17.162;2022-11-25T05:05:37;100176.23;;;4.08;92.36
38806;BME280;25635;51.146;17.162;2022-11-25T05:08:04;100174.51;;;4.06;92.32
38806;BME280;25635;51.146;17.162;2022-11-25T05:10:30;100178.83;;;4.08;92.33
38806;BME280;25635;51.146;17.162;2022-11-25T05:12:56;100181.45;;;4.09;92.38
38806;BME280;25635;51.146;17.162;2022-11-25T05:15:22;100179.25;;;4.07;92.43
38806;BME280;25635;51.146;17.162;2022-11-25T05:17:48;100184.00;;;4.08;92.48
38806;BME280;25635;51.146;17.162;2022-11-25T05:20:15;100180.52;;;4.05;92.43
38806;BME280;25635;51.146;17.162;2022-11-25T05:22:41;100175.73;;;4.02;92.46
38806;BME280;25635;51.146;17.162;2022-11-25T05:25:07;100183.45;;;4.00;92.35
38806;BME280;25635;51.146;17.162;2022-11-25T05:27:35;100186.47;;;4.00;92.47
38806;BME280;25635;51.146;17.162;2022-11-25T05:30:01;100195.53;;;4.01;92.47
38806;BME280;25635;51.146;17.162;2022-11-25T05:32:28;100190.86;;;4.04;92.47
38806;BME280;25635;51.146;17.162;2022-11-25T05:34:54;100194.35;;;4.06;92.39
38806;BME280;25635;51.146;17.162;2022-11-25T05:37:20;100196.05;;;4.05;92.29
38806;BME280;25635;51.146;17.162;2022-11-25T05:39:46;100199.45;;;4.03;92.37
38806;BME280;25635;51.146;17.162;2022-11-25T05:42:12;100195.49;;;3.98;92.34
38806;BME280;25635;51.146;17.162;2022-11-25T05:44:38;100204.52;;;3.97;92.53
38806;BME280;25635;51.146;17.162;2022-11-25T05:47:04;100206.63;;;3.94;92.65
38806;BME280;25635;51.146;17.162;2022-11-25T05:49:31;100213.53;;;3.95;92.66
38806;BME280;25635;51.146;17.162;2022-11-25T05:51:57;100208.86;;;3.98;92.72
38806;BME280;25635;51.146;17.162;2022-11-25T05:54:23;100211.48;;;4.01;92.64
38806;BME280;25635;51.146;17.162;2022-11-25T05:56:50;100210.67;;;4.03;92.64
38806;BME280;25635;51.146;17.162;2022-11-25T05:59:16;100220.23;;;4.08;92.64
38806;BME280;25635;51.146;17.162;2022-11-25T06:01:42;100215.13;;;4.11;92.64
38806;BME280;25635;51.146;17.162;2022-11-25T06:04:09;100217.30;;;4.11;92.61
38806;BME280;25635;51.146;17.162;2022-11-25T06:06:35;100214.27;;;4.10;92.56
38806;BME280;25635;51.146;17.162;2022-11-25T06:09:01;100215.56;;;4.10;92.58
38806;BME280;25635;51.146;17.162;2022-11-25T06:11:27;100218.55;;;4.08;92.59
38806;BME280;25635;51.146;17.162;2022-11-25T06:13:55;100221.57;;;4.09;92.50
38806;BME280;25635;51.146;17.162;2022-11-25T06:16:24;100222.47;;;4.11;92.51
38806;BME280;25635;51.146;17.162;2022-11-25T06:18:51;100222.47;;;4.11;92.34
38806;BME280;25635;51.146;17.162;2022-11-25T06:21:17;100217.72;;;4.11;92.41
38806;BME280;25635;51.146;17.162;2022-11-25T06:23:44;100219.87;;;4.11;92.41
38806;BME280;25635;51.146;17.162;2022-11-25T06:26:16;100221.52;;;4.06;92.29
38806;BME280;25635;51.146;17.162;2022-11-25T06:28:44;100217.96;;;4.01;92.42
38806;BME280;25635;51.146;17.162;2022-11-25T06:31:17;100222.70;;;4.00;92.59
38806;BME280;25635;51.146;17.162;2022-11-25T06:33:46;100226.98;;;3.98;92.72
38806;BME280;25635;51.146;17.162;2022-11-25T06:36:13;100226.90;;;3.95;92.57
38806;BME280;25635;51.146;17.162;2022-11-25T06:38:44;100229.02;;;3.92;92.65
38806;BME280;25635;51.146;17.162;2022-11-25T06:41:12;100229.48;;;3.93;92.81
38806;BME280;25635;51.146;17.162;2022-11-25T06:43:39;100235.56;;;3.97;92.98
38806;BME280;25635;51.146;17.162;2022-11-25T06:46:11;100236.55;;;4.02;92.93
38806;BME280;25635;51.146;17.162;2022-11-25T06:48:39;100244.39;;;4.06;93.03
38806;BME280;25635;51.146;17.162;2022-11-25T06:51:10;100242.27;;;4.09;93.07
38806;BME280;25635;51.146;17.162;2022-11-25T06:53:38;100247.06;;;4.11;93.08
38806;BME280;25635;51.146;17.162;2022-11-25T06:58:44;100244.90;;;4.11;93.05
38806;BME280;25635;51.146;17.162;2022-11-25T07:01:20;100246.63;;;4.12;93.06
38806;BME280;25635;51.146;17.162;2022-11-25T07:03:48;100244.12;;;4.15;93.11
38806;BME280;25635;51.146;17.162;2022-11-25T07:06:18;100250.67;;;4.19;93.16
38806;BME280;25635;51.146;17.162;2022-11-25T07:08:46;100249.45;;;4.24;93.08
38806;BME280;25635;51.146;17.162;2022-11-25T07:11:16;100249.09;;;4.28;93.20
38806;BME280;25635;51.146;17.162;2022-11-25T07:13:49;100249.13;;;4.29;93.07
38806;BME280;25635;51.146;17.162;2022-11-25T07:16:20;100253.91;;;4.31;93.23
38806;BME280;25635;51.146;17.162;2022-11-25T07:18:46;100250.03;;;4.33;93.37
38806;BME280;25635;51.146;17.162;2022-11-25T07:21:15;100256.11;;;4.33;93.43
38806;BME280;25635;51.146;17.162;2022-11-25T07:23:45;100261.22;;;4.30;93.24
38806;BME280;25635;51.146;17.162;2022-11-25T07:26:22;100263.38;;;4.31;93.30
38806;BME280;25635;51.146;17.162;2022-11-25T07:28:47;100266.91;;;4.34;93.48
38806;BME280;25635;51.146;17.162;2022-11-25T07:31:23;100262.70;;;4.41;93.56
38806;BME280;25635;51.146;17.162;2022-11-25T07:33:54;100272.74;;;4.47;93.47
38806;BME280;25635;51.146;17.162;2022-11-25T07:36:23;100267.67;;;4.52;93.32
38806;BME280;25635;51.146;17.162;2022-11-25T07:38:50;100270.77;;;4.56;93.42
38806;BME280;25635;51.146;17.162;2022-11-25T07:41:19;100270.30;;;4.55;93.26
38806;BME280;25635;51.146;17.162;2022-11-25T07:43:48;100271.16;;;4.56;93.43
38806;BME280;25635;51.146;17.162;2022-11-25T07:46:18;100274.66;;;4.58;93.49
38806;BME280;25635;51.146;17.162;2022-11-25T07:48:51;100269.04;;;4.57;93.53
38806;BME280;25635;51.146;17.162;2022-11-25T07:51:23;100271.73;;;4.63;93.73
38806;BME280;25635;51.146;17.162;2022-11-25T07:53:53;100273.57;;;4.69;93.85
38806;BME280;25635;51.146;17.162;2022-11-25T07:56:21;100269.36;;;4.75;93.89
38806;BME280;25635;51.146;17.162;2022-11-25T07:58:47;100263.88;;;4.83;93.95
38806;BME280;25635;51.146;17.162;2022-11-25T08:01:15;100268.30;;;4.91;94.12
38806;BME280;25635;51.146;17.162;2022-11-25T08:03:44;100271.03;;;4.98;94.09
38806;BME280;25635;51.146;17.162;2022-11-25T08:06:18;100273.31;;;5.06;94.17
38806;BME280;25635;51.146;17.162;2022-11-25T08:08:43;100269.92;;;5.11;94.06
38806;BME280;25635;51.146;17.162;2022-11-25T08:11:14;100278.20;;;5.15;94.02
38806;BME280;25635;51.146;17.162;2022-11-25T08:13:41;100284.69;;;5.16;93.89
38806;BME280;25635;51.146;17.162;2022-11-25T08:16:10;100284.78;;;5.21;93.90
38806;BME280;25635;51.146;17.162;2022-11-25T08:18:38;100285.27;;;5.25;93.63
38806;BME280;25635;51.146;17.162;2022-11-25T08:21:07;100287.92;;;5.31;93.61
38806;BME280;25635;51.146;17.162;2022-11-25T08:23:35;100291.05;;;5.37;93.43
38806;BME280;25635;51.146;17.162;2022-11-25T08:26:12;100291.08;;;5.38;93.28
38806;BME280;25635;51.146;17.162;2022-11-25T08:28:37;100288.97;;;5.42;93.36
38806;BME280;25635;51.146;17.162;2022-11-25T08:31:10;100295.89;;;5.43;93.17
38806;BME280;25635;51.146;17.162;2022-11-25T08:33:35;100292.38;;;5.38;93.15
38806;BME280;25635;51.146;17.162;2022-11-25T08:36:02;100294.41;;;5.31;93.08
38806;BME280;25635;51.146;17.162;2022-11-25T08:38:30;100296.60;;;5.33;93.33
38806;BME280;25635;51.146;17.162;2022-11-25T08:40:57;100296.60;;;5.33;93.31
38806;BME280;25635;51.146;17.162;2022-11-25T08:43:24;100298.39;;;5.37;93.60
38806;BME280;25635;51.146;17.162;2022-11-25T08:45:50;100295.49;;;5.44;93.92
38806;BME280;25635;51.146;17.162;2022-11-25T08:48:18;100293.45;;;5.54;94.02
38806;BME280;25635;51.146;17.162;2022-11-25T08:50:49;100297.77;;;5.54;93.48
38806;BME280;25635;51.146;17.162;2022-11-25T08:53:17;100294.34;;;5.55;93.62
38806;BME280;25635;51.146;17.162;2022-11-25T08:55:44;100299.59;;;5.59;93.86
38806;BME280;25635;51.146;17.162;2022-11-25T08:58:10;100296.62;;;5.63;94.08
38806;BME280;25635;51.146;17.162;2022-11-25T09:00:42;100299.30;;;5.69;94.15
38806;BME280;25635;51.146;17.162;2022-11-25T09:03:10;100299.38;;;5.77;94.10
38806;BME280;25635;51.146;17.162;2022-11-25T09:05:41;100306.77;;;5.77;93.60
38806;BME280;25635;51.146;17.162;2022-11-25T09:08:08;100303.73;;;5.79;93.66
38806;BME280;25635;51.146;17.162;2022-11-25T09:10:37;100307.30;;;5.86;94.03
38806;BME280;25635;51.146;17.162;2022-11-25T09:13:04;100301.78;;;5.94;94.47
38806;BME280;25635;51.146;17.162;2022-11-25T09:15:31;100310.06;;;5.97;94.12
38806;BME280;25635;51.146;17.162;2022-11-25T09:18:04;100313.44;;;5.93;93.71
38806;BME280;25635;51.146;17.162;2022-11-25T09:20:31;100309.59;;;5.96;94.06
38806;BME280;25635;51.146;17.162;2022-11-25T09:23:00;100312.22;;;5.97;93.64
38806;BME280;25635;51.146;17.162;2022-11-25T09:25:27;100314.84;;;5.99;93.78
38806;BME280;25635;51.146;17.162;2022-11-25T09:27:54;100308.45;;;6.08;93.99
38806;BME280;25635;51.146;17.162;2022-11-25T09:30:22;100309.86;;;6.16;94.31
38806;BME280;25635;51.146;17.162;2022-11-25T09:32:50;100303.86;;;6.23;94.32
38806;BME280;25635;51.146;17.162;2022-11-25T09:35:18;100306.56;;;6.31;94.40
38806;BME280;25635;51.146;17.162;2022-11-25T09:37:45;100298.37;;;6.36;94.15
38806;BME280;25635;51.146;17.162;2022-11-25T09:40:19;100297.08;;;6.36;93.78
38806;BME280;25635;51.146;17.162;2022-11-25T09:42:52;100297.16;;;6.43;94.19
38806;BME280;25635;51.146;17.162;2022-11-25T09:45:55;100293.38;;;6.54;94.41
38806;BME280;25635;51.146;17.162;2022-11-25T09:49:06;100295.67;;;6.65;94.49
38806;BME280;25635;51.146;17.162;2022-11-25T09:51:23;100297.48;;;6.74;94.33
38806;BME280;25635;51.146;17.162;2022-11-25T09:54:06;100295.80;;;6.81;94.50
38806;BME280;25635;51.146;17.162;2022-11-25T09:56:47;100298.02;;;6.87;94.39
38806;BME280;25635;51.146;17.162;2022-11-25T09:59:28;100295.05;;;6.96;94.40
38806;BME280;25635;51.146;17.162;2022-11-25T10:02:03;100293.42;;;7.08;94.65
38806;BME280;25635;51.146;17.162;2022-11-25T10:04:45;100295.69;;;7.20;94.57
38806;BME280;25635;51.146;17.162;2022-11-25T10:07:33;100290.95;;;7.27;93.69
38806;BME280;25635;51.146;17.162;2022-11-25T10:10:02;100286.62;;;7.27;93.52
38806;BME280;25635;51.146;17.162;2022-11-25T10:12:39;100287.10;;;7.36;93.70
38806;BME280;25635;51.146;17.162;2022-11-25T10:15:18;100277.17;;;7.42;93.69
38806;BME280;25635;51.146;17.162;2022-11-25T10:17:48;100284.58;;;7.45;93.40
38806;BME280;25635;51.146;17.162;2022-11-25T10:20:33;100283.75;;;7.51;92.88
38806;BME280;25635;51.146;17.162;2022-11-25T10:23:10;100285.92;;;7.55;93.21
38806;BME280;25635;51.146;17.162;2022-11-25T10:25:41;100284.70;;;7.68;94.03
38806;BME280;25635;51.146;17.162;2022-11-25T10:28:19;100292.55;;;7.78;93.23
38806;BME280;25635;51.146;17.162;2022-11-25T10:30:54;100285.64;;;7.83;93.22
38806;BME280;25635;51.146;17.162;2022-11-25T10:33:35;100290.43;;;7.88;92.57
38806;BME280;25635;51.146;17.162;2022-11-25T10:36:26;100293.52;;;7.95;92.26
38806;BME280;25635;51.146;17.162;2022-11-25T10:53:19;100303.16;;;8.21;90.75
38806;BME280;25635;51.146;17.162;2022-11-25T10:55:59;100301.42;;;8.26;90.56
38806;BME280;25635;51.146;17.162;2022-11-25T10:58:35;100292.74;;;8.25;90.59
38806;BME280;25635;51.146;17.162;2022-11-25T11:01:20;100292.77;;;8.36;91.29
38806;BME280;25635;51.146;17.162;2022-11-25T11:04:01;100292.82;;;8.47;91.53
38806;BME280;25635;51.146;17.162;2022-11-25T11:06:36;100298.49;;;8.52;90.37
38806;BME280;25635;51.146;17.162;2022-11-25T11:09:05;100298.94;;;8.58;90.17
38806;BME280;25635;51.146;17.162;2022-11-25T11:11:32;100299.39;;;8.62;90.46
38806;BME280;25635;51.146;17.162;2022-11-25T11:16:42;100311.15;;;8.81;90.90
38806;BME280;25635;51.146;17.162;2022-11-25T11:19:23;100315.94;;;8.89;90.57
38806;BME280;25635;51.146;17.162;2022-11-25T11:21:55;100318.09;;;8.86;89.30
38806;BME280;25635;51.146;17.162;2022-11-25T11:24:29;100312.02;;;8.87;89.27
38806;BME280;25635;51.146;17.162;2022-11-25T11:27:16;100313.73;;;8.82;88.92
38806;BME280;25635;51.146;17.162;2022-11-25T11:30:07;100309.39;;;8.84;89.29
38806;BME280;25635;51.146;17.162;2022-11-25T11:32:29;100314.63;;;8.87;89.74
38806;BME280;25635;51.146;17.162;2022-11-25T11:37:42;100309.40;;;8.86;89.18
38806;BME280;25635;51.146;17.162;2022-11-25T11:40:35;100304.20;;;8.89;89.09
38806;BME280;25635;51.146;17.162;2022-11-25T11:43:13;100303.76;;;8.94;89.66
38806;BME280;25635;51.146;17.162;2022-11-25T11:46:13;100304.19;;;9.03;89.47
38806;BME280;25635;51.146;17.162;2022-11-25T11:49:04;100299.83;;;9.09;89.57
38806;BME280;25635;51.146;17.162;2022-11-25T11:54:46;100297.23;;;9.19;89.41
38806;BME280;25635;51.146;17.162;2022-11-25T11:57:49;100302.89;;;9.15;88.20
38806;BME280;25635;51.146;17.162;2022-11-25T12:00:34;100301.59;;;9.12;87.52
38806;BME280;25635;51.146;17.162;2022-11-25T12:03:13;100302.88;;;9.13;88.58
38806;BME280;25635;51.146;17.162;2022-11-25T12:05:48;100303.30;;;9.22;88.45
38806;BME280;25635;51.146;17.162;2022-11-25T12:08:33;100302.02;;;9.19;87.69
38806;BME280;25635;51.146;17.162;2022-11-25T12:11:02;100298.96;;;9.20;87.59
38806;BME280;25635;51.146;17.162;2022-11-25T12:13:54;100305.06;;;9.19;87.42
38806;BME280;25635;51.146;17.162;2022-11-25T12:16:34;100298.52;;;9.22;88.00
38806;BME280;25635;51.146;17.162;2022-11-25T12:19:20;100299.41;;;9.25;87.54
38806;BME280;25635;51.146;17.162;2022-11-25T12:22:06;100292.44;;;9.27;87.80
38806;BME280;25635;51.146;17.162;2022-11-25T12:27:32;100291.56;;;9.24;86.73
38806;BME280;25635;51.146;17.162;2022-11-25T12:30:06;100287.20;;;9.30;87.57
38806;BME280;25635;51.146;17.162;2022-11-25T12:33:05;100295.05;;;9.35;87.47
38806;BME280;25635;51.146;17.162;2022-11-25T12:44:17;100292.44;;;9.27;87.23
38806;BME280;25635;51.146;17.162;2022-11-25T12:46:53;100290.27;;;9.31;87.26
38806;BME280;25635;51.146;17.162;2022-11-25T12:49:26;100292.00;;;9.37;87.33
38806;BME280;25635;51.146;17.162;2022-11-25T13:01:13;100291.11;;;9.46;86.76
38806;BME280;25635;51.146;17.162;2022-11-25T13:15:43;100301.11;;;9.46;85.91
38806;BME280;25635;51.146;17.162;2022-11-25T13:18:13;100299.39;;;9.38;85.49
38806;BME280;25635;51.146;17.162;2022-11-25T13:20:54;100299.83;;;9.29;85.61
38806;BME280;25635;51.146;17.162;2022-11-25T13:23:26;100299.84;;;9.25;85.81
38806;BME280;25635;51.146;17.162;2022-11-25T13:28:59;100302.02;;;9.25;85.79
38806;BME280;25635;51.146;17.162;2022-11-25T13:31:31;100303.73;;;9.26;86.23
38806;BME280;25635;51.146;17.162;2022-11-25T13:34:21;100305.05;;;9.28;85.92
38806;BME280;25635;51.146;17.162;2022-11-25T13:36:49;100315.05;;;9.31;86.05
38806;BME280;25635;51.146;17.162;2022-11-25T13:42:15;100308.96;;;9.36;86.27
38806;BME280;25635;51.146;17.162;2022-11-25T13:44:54;100307.20;;;9.34;86.08
38806;BME280;25635;51.146;17.162;2022-11-25T13:47:31;100303.73;;;9.32;86.03
38806;BME280;25635;51.146;17.162;2022-11-25T13:50:03;100308.95;;;9.32;86.03
38806;BME280;25635;51.146;17.162;2022-11-25T13:52:42;100307.21;;;9.28;85.69
38806;BME280;25635;51.146;17.162;2022-11-25T13:55:32;100305.94;;;9.21;85.72
38806;BME280;25635;51.146;17.162;2022-11-25T13:58:17;100308.11;;;9.23;85.77
38806;BME280;25635;51.146;17.162;2022-11-25T14:01:01;100314.63;;;9.23;85.76
38806;BME280;25635;51.146;17.162;2022-11-25T14:06:12;100315.48;;;9.20;85.68
38806;BME280;25635;51.146;17.162;2022-11-25T14:09:12;100318.55;;;9.17;85.61
38806;BME280;25635;51.146;17.162;2022-11-25T14:20:02;100328.96;;;9.01;85.46
38806;BME280;25635;51.146;17.162;2022-11-25T14:23:15;100323.76;;;8.98;85.33
38806;BME280;25635;51.146;17.162;2022-11-25T14:26:03;100326.78;;;8.93;85.30
38806;BME280;25635;51.146;17.162;2022-11-25T14:28:35;100325.94;;;8.89;85.48
38806;BME280;25635;51.146;17.162;2022-11-25T14:31:15;100324.63;;;8.85;85.54
38806;BME280;25635;51.146;17.162;2022-11-25T14:33:50;100331.99;;;8.78;85.35